createdAt,value
2019-04-30T00:03:39.006Z,71.3
2019-04-30T00:08:39.442Z,70.6
2019-04-30T00:13:38.789Z,71.9
2019-04-30T00:18:53.224Z,74.7
2019-04-30T00:23:56.261Z,74.6
2019-04-30T00:28:55.630Z,74.5
2019-04-30T00:34:01.420Z,75.9
2019-04-30T00:38:59.994Z,76.1
2019-04-30T00:43:59.471Z,76.8
2019-04-30T00:49:15.885Z,77
2019-04-30T00:54:17.786Z,76.2
2019-04-30T00:59:16.462Z,75.8
2019-04-30T01:04:24.370Z,75.2
2019-04-30T01:09:25.900Z,75.8
2019-04-30T01:14:31.901Z,75.3
2019-04-30T01:19:33.152Z,75.6
2019-04-30T01:24:32.138Z,74.8
2019-04-30T01:29:43.988Z,76.5
2019-04-30T01:34:49.659Z,75.6
2019-04-30T01:39:50.371Z,77.4
2019-04-30T01:44:54.068Z,77.6
2019-04-30T01:50:00.810Z,76.4
2019-04-30T01:55:01.030Z,77.2
2019-04-30T02:00:00.889Z,77.4
2019-04-30T02:05:00.175Z,78.4
2019-04-30T02:09:59.874Z,79.4
2019-04-30T02:15:00.056Z,78.8
2019-04-30T02:19:59.670Z,79.4
2019-04-30T02:24:59.762Z,79.8
2019-04-30T02:30:02.925Z,79.2
2019-04-30T02:35:02.005Z,79.8
2019-04-30T02:40:01.742Z,78.5
2019-04-30T02:45:04.303Z,79.8
2019-04-30T02:50:19.535Z,80
2019-04-30T02:55:19.700Z,80.6
2019-04-30T03:00:21.075Z,81.5
2019-04-30T03:05:20.630Z,81.8
2019-04-30T03:10:20.302Z,83.2
2019-04-30T03:15:23.142Z,82.4
2019-04-30T03:20:36.493Z,83.3
2019-04-30T03:25:34.142Z,82.3
2019-04-30T03:30:34.076Z,80.2
2019-04-30T03:35:33.755Z,80.1
2019-04-30T03:40:33.734Z,80.4
2019-04-30T03:45:32.952Z,80.7
2019-04-30T03:50:56.259Z,80.9
2019-04-30T03:55:53.413Z,79.9
2019-04-30T04:00:53.259Z,78.8
2019-04-30T04:05:53.424Z,76.6
2019-04-30T04:10:53.576Z,73.3
2019-04-30T04:15:53.806Z,72.6
2019-04-30T04:21:16.174Z,67.5
2019-04-30T04:26:13.121Z,69.1
2019-04-30T04:31:11.855Z,68.6
2019-04-30T04:36:11.206Z,71.2
2019-04-30T04:41:10.810Z,72.4
2019-04-30T04:46:10.499Z,73.8
2019-04-30T04:51:37.899Z,72.3
2019-04-30T04:56:35.491Z,67.2
2019-04-30T05:01:35.906Z,63.6
2019-04-30T05:06:36.233Z,62.6
2019-04-30T05:11:35.998Z,61.3
2019-04-30T05:16:39.141Z,54.5
2019-04-30T05:21:44.901Z,56.3
2019-04-30T05:26:43.653Z,56.7
2019-04-30T05:31:42.943Z,54.3
2019-04-30T05:36:41.759Z,59.3
2019-04-30T05:41:42.079Z,55.8
2019-04-30T05:46:41.904Z,56.4
2019-04-30T05:51:55.862Z,56.8
2019-04-30T05:56:53.212Z,58
2019-04-30T06:01:53.402Z,57.6
2019-04-30T06:06:52.968Z,59.3
2019-04-30T06:11:52.344Z,56.5
2019-04-30T06:16:51.990Z,60.8
2019-04-30T06:21:51.819Z,58
2019-04-30T06:26:51.918Z,55.1
2019-04-30T06:31:51.593Z,55.3
2019-04-30T06:36:55.638Z,57.8
2019-04-30T06:42:10.643Z,58.7
2019-04-30T06:47:09.385Z,58.3
2019-04-30T06:52:23.482Z,58.6
2019-04-30T06:57:21.393Z,57
2019-04-30T07:02:20.798Z,59.1
2019-04-30T07:07:30.746Z,57.2
2019-04-30T07:12:34.463Z,56.5
2019-04-30T07:17:33.705Z,59.8
2019-04-30T07:22:49.165Z,59.7
2019-04-30T07:27:47.189Z,57.4
2019-04-30T07:32:48.966Z,59.2
2019-04-30T07:37:54.456Z,59.2
2019-04-30T07:42:52.731Z,55.8
2019-04-30T07:47:52.081Z,55.7
2019-04-30T07:53:05.970Z,57.3
2019-04-30T07:58:04.530Z,53.5
2019-04-30T08:03:05.578Z,58.3
2019-04-30T08:08:24.483Z,52.6
2019-04-30T08:13:23.763Z,52.5
2019-04-30T08:18:23.460Z,55.1
2019-04-30T08:23:37.095Z,55.5
2019-04-30T08:28:34.966Z,50.4
2019-04-30T08:33:34.676Z,47.5
2019-04-30T08:38:35.000Z,48.1
2019-04-30T08:43:34.809Z,48.1
2019-04-30T08:48:53.569Z,47.2
2019-04-30T08:53:50.666Z,44.7
2019-04-30T08:58:50.884Z,46.1
2019-04-30T09:03:51.650Z,41
2019-04-30T09:08:51.247Z,43.8
2019-04-30T09:13:51.698Z,42.7
2019-04-30T09:18:51.856Z,43.1
2019-04-30T09:23:53.047Z,41.1
2019-04-30T09:28:52.900Z,39.6
2019-04-30T09:33:52.284Z,40.9
2019-04-30T09:38:51.299Z,43.1
2019-04-30T09:43:50.545Z,43
2019-04-30T09:48:51.106Z,48.4
2019-04-30T09:54:02.164Z,50.1
2019-04-30T09:59:00.138Z,54.8
2019-04-30T10:04:01.246Z,55.2
2019-04-30T10:09:00.010Z,59.4
2019-04-30T10:14:00.009Z,56.8
2019-04-30T10:19:01.645Z,55.7
2019-04-30T10:24:15.668Z,56.2
2019-04-30T10:29:14.530Z,49.2
2019-04-30T10:34:14.412Z,51.9
2019-04-30T10:39:14.236Z,50
2019-04-30T10:44:13.535Z,47.8
2019-04-30T10:49:12.937Z,46.8
2019-04-30T10:54:26.436Z,49.3
2019-04-30T10:59:25.328Z,47.6
2019-04-30T11:04:25.302Z,40.8
2019-04-30T11:09:23.859Z,40.8
2019-04-30T11:14:24.340Z,42.8
2019-04-30T11:19:25.001Z,40.1
2019-04-30T11:24:45.447Z,43.2
2019-04-30T11:29:50.200Z,42.7
2019-04-30T11:34:49.795Z,42.8
2019-04-30T11:39:50.159Z,38.6
2019-04-30T11:44:49.059Z,38.8
2019-04-30T11:49:48.358Z,37.6
2019-04-30T11:54:54.529Z,38.7
2019-04-30T11:59:54.322Z,38.1
2019-04-30T12:04:54.392Z,34.1
2019-04-30T12:09:54.652Z,38.1
2019-04-30T12:14:54.499Z,32.9
2019-04-30T12:19:53.537Z,36.9
2019-04-30T12:25:05.391Z,35.9
2019-04-30T12:30:03.845Z,31.9
2019-04-30T12:35:03.510Z,33.1
2019-04-30T12:40:03.064Z,32.6
2019-04-30T12:45:02.852Z,33
2019-04-30T12:50:03.102Z,35.2
2019-04-30T12:55:15.915Z,34.6
2019-04-30T13:00:13.489Z,29
2019-04-30T13:05:13.492Z,34.2
2019-04-30T13:10:14.420Z,31.6
2019-04-30T13:15:13.414Z,32.5
2019-04-30T13:20:24.026Z,34.3
2019-04-30T13:25:35.455Z,34.3
2019-04-30T13:30:32.829Z,32.6
2019-04-30T13:35:33.043Z,32.2
2019-04-30T13:40:33.343Z,31.9
2019-04-30T13:45:32.919Z,28.3
2019-04-30T13:50:32.542Z,28.5
2019-04-30T13:55:45.925Z,31.4
2019-04-30T14:00:43.248Z,30
2019-04-30T14:05:42.393Z,33.8
2019-04-30T14:10:42.058Z,32.4
2019-04-30T14:15:41.097Z,31.7
2019-04-30T14:20:40.507Z,34.7
2019-04-30T14:25:40.605Z,31.8
2019-04-30T14:30:40.672Z,30.9
2019-04-30T14:35:40.407Z,31.9
2019-04-30T14:40:41.681Z,32.9
2019-04-30T14:45:42.558Z,34.4
2019-04-30T14:50:41.820Z,34.6
2019-04-30T14:55:40.914Z,33.3
2019-04-30T15:00:40.435Z,35
2019-04-30T15:05:51.542Z,34.7
2019-04-30T15:10:49.512Z,35.3
2019-04-30T15:15:49.394Z,38.6
2019-04-30T15:20:49.996Z,37.9
2019-04-30T15:25:49.220Z,37.9
2019-04-30T15:30:49.112Z,37.5
2019-04-30T15:35:50.579Z,40.1
2019-04-30T15:40:49.671Z,40.3
2019-04-30T15:45:49.671Z,41.3
2019-04-30T15:50:49.533Z,39.3
2019-04-30T15:55:49.171Z,39.5
2019-04-30T16:00:49.658Z,40.1
2019-04-30T16:05:48.870Z,44.8
2019-04-30T16:10:48.192Z,41.2
2019-04-30T16:15:49.391Z,42.4
2019-04-30T16:20:50.230Z,42.3
2019-04-30T16:25:49.420Z,43.5
2019-04-30T16:30:48.865Z,42.5
2019-04-30T16:35:51.194Z,44.1
2019-04-30T16:40:50.272Z,43
2019-04-30T16:45:49.828Z,46.4
2019-04-30T16:50:51.491Z,42.9
2019-04-30T16:55:50.906Z,45.3
2019-04-30T17:00:50.495Z,44.6
2019-04-30T17:05:50.315Z,46.1
2019-04-30T17:10:50.753Z,45.5
2019-04-30T17:15:50.422Z,43.4
2019-04-30T17:20:49.959Z,45.6
2019-04-30T17:25:49.578Z,44.5
2019-04-30T17:30:49.442Z,46
2019-04-30T17:35:50.130Z,47.9
2019-04-30T17:40:50.004Z,50.1
2019-04-30T17:45:49.903Z,53.4
2019-04-30T17:50:49.991Z,53.9
2019-04-30T17:55:49.474Z,54.4
2019-04-30T18:00:49.034Z,56.1
2019-04-30T18:05:49.568Z,55.4
2019-04-30T18:10:47.754Z,55.2
2019-04-30T18:15:48.689Z,57.9
2019-04-30T18:20:49.393Z,59.2
2019-04-30T18:25:48.782Z,59.8
2019-04-30T18:30:49.359Z,58.4
2019-04-30T18:35:48.981Z,59.3
2019-04-30T18:40:49.834Z,60.6
2019-04-30T18:45:49.691Z,59
2019-04-30T18:50:49.132Z,59.6
2019-04-30T18:55:51.029Z,61.6
2019-04-30T19:00:49.781Z,62.5
2019-04-30T19:05:49.585Z,58.4
2019-04-30T19:10:49.268Z,61.5
2019-04-30T19:16:24.619Z,62.4
2019-04-30T19:21:20.506Z,62
2019-04-30T19:26:21.217Z,59.7
2019-04-30T19:31:20.409Z,60.9
2019-04-30T19:36:34.806Z,56.5
2019-04-30T19:41:34.236Z,57.8
2019-04-30T19:46:34.351Z,59.6
2019-04-30T19:51:34.616Z,56.2
2019-04-30T19:56:34.283Z,60.1
2019-04-30T20:01:33.840Z,59.5
2019-04-30T20:06:33.574Z,57.5
2019-04-30T20:11:33.023Z,57.1
2019-04-30T20:16:32.776Z,57.1
2019-04-30T20:21:53.192Z,61.4
2019-04-30T20:27:04.821Z,58.6
2019-04-30T20:32:04.388Z,59.6
2019-04-30T20:37:03.707Z,58.1
2019-04-30T20:42:03.093Z,58.3
2019-04-30T20:47:02.868Z,64.1
2019-04-30T20:52:02.576Z,61.5
2019-04-30T20:57:02.336Z,60
2019-04-30T21:02:02.405Z,58
2019-04-30T21:07:02.627Z,59.3
2019-04-30T21:12:01.838Z,58.7
2019-04-30T21:17:01.417Z,59.6
2019-04-30T21:22:00.936Z,65.3
2019-04-30T21:27:00.391Z,68.3
2019-04-30T21:32:00.002Z,68.1
2019-04-30T21:37:00.030Z,68.5
2019-04-30T21:41:59.680Z,66.7
2019-04-30T21:46:59.516Z,68.1
2019-04-30T21:51:59.245Z,68.4
2019-04-30T21:56:59.134Z,69.4
2019-04-30T22:01:58.656Z,68.8
2019-04-30T22:06:59.854Z,68.1
2019-04-30T22:11:59.481Z,69.4
2019-04-30T22:16:59.686Z,70.3
2019-04-30T22:21:59.846Z,70.1
2019-04-30T22:26:58.860Z,70.1
2019-04-30T22:31:59.601Z,71.7
2019-04-30T22:36:58.892Z,72.4
2019-04-30T22:41:58.526Z,72.3
2019-04-30T22:47:00.875Z,72.7
2019-04-30T22:51:59.873Z,73.4
2019-04-30T22:56:59.560Z,72.5
2019-04-30T23:01:59.500Z,70.9
2019-04-30T23:06:58.967Z,71.4
2019-04-30T23:11:58.444Z,68.9
2019-04-30T23:16:57.967Z,74
2019-04-30T23:21:57.800Z,72
2019-04-30T23:26:57.712Z,73.9
2019-04-30T23:31:57.351Z,72.3
2019-04-30T23:36:57.301Z,68.2
2019-04-30T23:41:57.099Z,69.3
2019-04-30T23:46:56.911Z,66.1
2019-04-30T23:51:56.949Z,66.9
2019-04-30T23:56:56.577Z,65.8
